createdAt,value
2022-08-01T00:01:34.447Z,50.90
2022-08-01T00:04:04.091Z,51.10
2022-08-01T00:06:32.568Z,51.20
2022-08-01T00:09:00.790Z,51.30
2022-08-01T00:11:29.094Z,51.50
2022-08-01T00:13:57.330Z,51.50
2022-08-01T00:16:25.589Z,51.60
2022-08-01T00:18:54.155Z,51.70
2022-08-01T00:21:24.009Z,51.70
2022-08-01T00:23:52.221Z,51.80
2022-08-01T00:26:21.080Z,51.90
2022-08-01T00:28:49.525Z,52.10
2022-08-01T00:31:18.838Z,52.30
2022-08-01T00:33:49.801Z,52.40
2022-08-01T00:36:26.710Z,52.50
2022-08-01T00:38:58.817Z,52.60
2022-08-01T00:41:27.062Z,52.70
2022-08-01T00:44:06.715Z,52.90
2022-08-01T00:46:35.901Z,53.00
2022-08-01T00:49:14.594Z,53.10
2022-08-01T00:51:44.396Z,53.30
2022-08-01T00:54:17.793Z,53.40
2022-08-01T00:56:47.133Z,53.60
2022-08-01T00:59:21.824Z,53.70
2022-08-01T01:01:53.726Z,53.90
2022-08-01T01:04:26.722Z,54.00
2022-08-01T01:07:11.309Z,54.20
2022-08-01T01:09:47.087Z,54.40
2022-08-01T01:12:24.885Z,54.60
2022-08-01T01:15:28.923Z,54.80
2022-08-01T01:18:05.754Z,54.80
2022-08-01T01:20:41.466Z,55.00
2022-08-01T01:23:37.363Z,55.10
2022-08-01T01:26:26.565Z,55.30
2022-08-01T01:29:10.893Z,55.40
2022-08-01T01:31:50.307Z,55.50
2022-08-01T01:34:22.200Z,55.70
2022-08-01T01:36:56.799Z,55.80
2022-08-01T01:39:30.781Z,56.00
2022-08-01T01:42:04.486Z,56.10
2022-08-01T01:44:41.570Z,56.30
2022-08-01T01:47:11.264Z,56.40
2022-08-01T01:49:44.114Z,56.70
2022-08-01T01:52:14.768Z,56.80
2022-08-01T01:54:55.198Z,56.90
2022-08-01T01:57:26.393Z,57.20
2022-08-01T02:00:02.143Z,57.30
2022-08-01T02:02:33.722Z,57.60
2022-08-01T02:05:07.342Z,57.70
2022-08-01T02:07:37.829Z,57.80
2022-08-01T02:10:13.031Z,57.80
2022-08-01T02:12:54.007Z,57.90
2022-08-01T02:15:30.514Z,58.00
2022-08-01T02:18:03.269Z,58.10
2022-08-01T02:20:37.924Z,58.00
2022-08-01T02:23:15.307Z,58.20
2022-08-01T02:26:09.999Z,58.50
2022-08-01T02:28:50.503Z,58.40
2022-08-01T02:31:28.736Z,58.60
2022-08-01T02:34:03.765Z,58.70
2022-08-01T02:36:36.863Z,58.90
2022-08-01T02:39:10.963Z,59.00
2022-08-01T02:41:48.775Z,59.00
2022-08-01T02:44:27.070Z,59.10
2022-08-01T02:47:05.831Z,59.10
2022-08-01T02:49:39.877Z,59.10
2022-08-01T02:52:14.708Z,59.30
2022-08-01T02:54:46.856Z,59.30
2022-08-01T02:57:21.155Z,59.40
2022-08-01T02:59:52.219Z,59.40
2022-08-01T03:02:31.290Z,59.50
2022-08-01T03:05:03.135Z,59.70
2022-08-01T03:07:34.352Z,59.70
2022-08-01T03:10:07.570Z,59.80
2022-08-01T03:12:38.874Z,60.00
2022-08-01T03:15:12.469Z,60.30
2022-08-01T03:17:47.722Z,60.40
2022-08-01T03:20:18.807Z,60.50
2022-08-01T03:22:52.938Z,60.60
2022-08-01T03:25:23.737Z,60.70
2022-08-01T03:28:02.590Z,60.90
2022-08-01T03:30:34.678Z,60.90
2022-08-01T03:33:05.150Z,61.00
2022-08-01T03:35:39.065Z,61.10
2022-08-01T03:38:16.566Z,61.10
2022-08-01T03:40:52.886Z,61.10
2022-08-01T03:43:25.489Z,61.10
2022-08-01T03:46:02.603Z,61.20
2022-08-01T03:48:37.566Z,61.30
2022-08-01T03:51:10.109Z,61.30
2022-08-01T03:53:45.651Z,61.50
2022-08-01T03:56:23.510Z,61.50
2022-08-01T03:58:54.708Z,61.40
2022-08-01T04:01:27.066Z,61.40
2022-08-01T04:04:03.304Z,61.60
2022-08-01T04:06:33.778Z,61.70
2022-08-01T04:09:03.309Z,61.70
2022-08-01T04:11:33.826Z,61.70
2022-08-01T04:14:02.038Z,61.60
2022-08-01T04:16:45.368Z,61.60
2022-08-01T04:19:21.811Z,61.50
2022-08-01T04:21:52.717Z,61.30
2022-08-01T04:24:27.753Z,61.20
2022-08-01T04:26:57.449Z,61.20
2022-08-01T04:29:30.011Z,61.20
2022-08-01T04:32:01.367Z,61.20
2022-08-01T04:34:38.612Z,61.20
2022-08-01T04:37:13.266Z,61.20
2022-08-01T04:39:50.919Z,61.20
2022-08-01T04:42:25.155Z,61.10
2022-08-01T04:45:02.087Z,61.10
2022-08-01T04:47:40.964Z,61.10
2022-08-01T04:50:29.251Z,61.00
2022-08-01T04:52:58.572Z,60.90
2022-08-01T04:55:30.209Z,60.90
2022-08-01T04:58:01.054Z,60.90
2022-08-01T05:00:29.773Z,60.90
2022-08-01T05:03:09.934Z,60.90
2022-08-01T05:05:41.766Z,60.90
2022-08-01T05:08:13.075Z,60.90
2022-08-01T05:10:41.641Z,60.80
2022-08-01T05:13:27.876Z,60.60
2022-08-01T05:16:02.062Z,60.50
2022-08-01T05:18:30.522Z,60.40
2022-08-01T05:21:09.499Z,60.30
2022-08-01T05:23:43.031Z,60.20
2022-08-01T05:26:14.510Z,60.00
2022-08-01T05:28:46.205Z,59.80
2022-08-01T05:31:16.914Z,59.70
2022-08-01T05:33:52.098Z,59.60
2022-08-01T05:36:21.803Z,59.30
2022-08-01T05:38:52.006Z,59.10
2022-08-01T05:41:20.386Z,59.00
2022-08-01T05:43:50.855Z,58.70
2022-08-01T05:46:19.176Z,58.60
2022-08-01T05:48:47.342Z,58.60
2022-08-01T05:51:21.467Z,58.50
2022-08-01T05:53:55.990Z,58.40
2022-08-01T05:56:29.388Z,58.20
2022-08-01T05:59:03.166Z,58.10
2022-08-01T06:01:37.764Z,58.00
2022-08-01T06:04:10.565Z,57.90
2022-08-01T06:06:38.724Z,57.60
2022-08-01T06:09:08.533Z,57.50
2022-08-01T06:11:38.068Z,57.40
2022-08-01T06:14:07.301Z,57.30
2022-08-01T06:16:37.984Z,57.20
2022-08-01T06:19:06.103Z,57.20
2022-08-01T06:21:38.155Z,57.00
2022-08-01T06:24:10.402Z,56.80
2022-08-01T06:26:41.027Z,56.70
2022-08-01T06:29:14.654Z,56.70
2022-08-01T06:31:43.142Z,56.50
2022-08-01T06:34:18.515Z,56.40
2022-08-01T06:36:51.134Z,56.30
2022-08-01T06:39:20.747Z,56.10
2022-08-01T06:41:49.672Z,55.80
2022-08-01T06:44:19.239Z,55.50
2022-08-01T06:46:51.063Z,55.30
2022-08-01T06:49:19.408Z,55.00
2022-08-01T06:51:48.870Z,54.70
2022-08-01T06:54:19.514Z,54.40
2022-08-01T06:56:52.012Z,54.20
2022-08-01T06:59:28.180Z,54.10
2022-08-01T07:01:59.418Z,53.80
2022-08-01T07:04:32.638Z,53.50
2022-08-01T07:07:01.108Z,53.30
2022-08-01T07:09:29.798Z,53.10
2022-08-01T07:12:03.787Z,52.70
2022-08-01T07:14:33.475Z,52.60
2022-08-01T07:17:03.947Z,52.40
2022-08-01T07:19:41.849Z,52.20
2022-08-01T07:22:15.174Z,51.80
2022-08-01T07:24:54.578Z,51.60
2022-08-01T07:27:31.882Z,51.30
2022-08-01T07:32:44.745Z,51.00
2022-08-01T07:35:32.246Z,50.60
2022-08-01T07:38:02.321Z,50.60
2022-08-01T07:40:54.082Z,50.60
2022-08-01T07:43:57.332Z,50.20
2022-08-01T07:46:33.335Z,50.10
2022-08-01T07:49:03.972Z,50.00
2022-08-01T07:54:18.807Z,49.60
2022-08-01T07:57:04.442Z,49.40
2022-08-01T07:59:38.320Z,48.60
2022-08-01T08:02:06.994Z,48.70
2022-08-01T08:04:48.533Z,48.80
2022-08-01T08:07:17.783Z,48.70
2022-08-01T08:09:51.182Z,48.40
2022-08-01T08:12:28.738Z,48.00
2022-08-01T08:15:01.453Z,48.10
2022-08-01T08:17:35.991Z,47.80
2022-08-01T08:20:06.497Z,47.40
2022-08-01T08:22:38.068Z,47.00
2022-08-01T08:25:07.930Z,47.10
2022-08-01T08:27:37.439Z,47.20
2022-08-01T08:30:09.553Z,46.70
2022-08-01T08:32:39.385Z,46.40
2022-08-01T08:35:18.416Z,46.90
2022-08-01T08:37:56.159Z,46.50
2022-08-01T08:40:32.628Z,46.60
2022-08-01T08:43:06.894Z,46.10
2022-08-01T08:45:58.082Z,46.30
2022-08-01T08:48:28.294Z,46.00
2022-08-01T08:50:59.835Z,46.00
2022-08-01T08:53:34.862Z,45.90
2022-08-01T08:56:04.025Z,45.60
2022-08-01T08:58:35.230Z,45.10
2022-08-01T09:01:07.070Z,44.80
2022-08-01T09:03:35.628Z,45.10
2022-08-01T09:06:04.004Z,44.90
2022-08-01T09:08:32.222Z,44.60
2022-08-01T09:11:00.433Z,44.40
2022-08-01T09:13:28.639Z,44.40
2022-08-01T09:15:59.925Z,44.30
2022-08-01T09:18:32.555Z,44.30
2022-08-01T09:21:12.096Z,43.90
2022-08-01T09:23:53.954Z,43.40
2022-08-01T09:26:32.081Z,43.60
2022-08-01T09:29:03.104Z,43.60
2022-08-01T09:31:47.665Z,43.40
2022-08-01T09:34:29.583Z,43.30
2022-08-01T09:37:07.582Z,43.40
2022-08-01T09:39:44.279Z,43.10
2022-08-01T09:42:29.237Z,42.60
2022-08-01T09:45:02.247Z,42.60
2022-08-01T09:47:39.825Z,42.60
2022-08-01T09:50:11.519Z,42.60
2022-08-01T09:52:41.204Z,42.30
2022-08-01T09:55:12.025Z,42.50
2022-08-01T09:57:41.203Z,42.00
2022-08-01T10:00:43.870Z,41.80
2022-08-01T10:03:22.746Z,41.80
2022-08-01T10:05:54.379Z,41.90
2022-08-01T10:08:26.723Z,41.80
2022-08-01T10:11:13.170Z,41.50
2022-08-01T10:13:49.303Z,41.60
2022-08-01T10:16:21.228Z,41.30
2022-08-01T10:18:51.756Z,41.00
2022-08-01T10:21:44.051Z,40.80
2022-08-01T10:24:21.962Z,41.00
2022-08-01T10:26:58.080Z,40.80
2022-08-01T10:30:00.101Z,40.90
2022-08-01T10:32:18.248Z,40.70
2022-08-01T10:34:47.877Z,40.50
2022-08-01T10:37:19.293Z,40.20
2022-08-01T10:39:47.555Z,40.30
2022-08-01T10:42:16.259Z,40.20
2022-08-01T10:44:48.854Z,39.80
2022-08-01T10:47:26.698Z,39.90
2022-08-01T10:50:25.829Z,39.80
2022-08-01T10:53:16.199Z,40.20
2022-08-01T10:55:53.187Z,39.80
2022-08-01T10:58:25.257Z,39.40
2022-08-01T11:01:25.456Z,39.60
2022-08-01T11:04:16.048Z,39.20
2022-08-01T11:06:55.425Z,39.30
2022-08-01T11:09:36.855Z,38.90
2022-08-01T11:12:13.538Z,38.70
2022-08-01T11:15:29.736Z,39.00
2022-08-01T11:18:01.152Z,38.50
2022-08-01T11:20:32.514Z,38.10
2022-08-01T11:23:36.215Z,38.30
2022-08-01T11:26:14.322Z,37.70
2022-08-01T11:29:04.986Z,37.20
2022-08-01T11:31:37.191Z,36.60
2022-08-01T11:34:05.673Z,36.60
2022-08-01T11:36:58.601Z,37.00
2022-08-01T11:39:22.290Z,36.80
2022-08-01T11:41:53.530Z,36.20
2022-08-01T11:44:26.843Z,36.10
2022-08-01T11:47:09.083Z,36.10
2022-08-01T11:50:00.677Z,35.80
2022-08-01T11:52:31.088Z,35.70
2022-08-01T11:55:10.009Z,35.80
2022-08-01T11:57:40.364Z,35.50
2022-08-01T12:00:16.603Z,35.50
2022-08-01T12:02:47.476Z,35.30
2022-08-01T12:05:18.532Z,35.60
2022-08-01T12:07:51.348Z,35.60
2022-08-01T12:10:21.063Z,34.70
2022-08-01T12:12:51.957Z,34.60
2022-08-01T12:15:22.031Z,34.60
2022-08-01T12:17:57.918Z,34.50
2022-08-01T12:20:30.377Z,34.70
2022-08-01T12:23:00.079Z,34.50
2022-08-01T12:25:28.455Z,34.40
2022-08-01T12:28:02.515Z,33.90
2022-08-01T12:30:31.984Z,34.50
2022-08-01T12:33:00.712Z,34.40
2022-08-01T12:35:30.729Z,34.20
2022-08-01T12:38:03.512Z,34.30
2022-08-01T12:40:35.164Z,34.30
2022-08-01T12:43:06.878Z,33.90
2022-08-01T12:45:40.556Z,33.60
2022-08-01T12:48:22.938Z,33.60
2022-08-01T12:50:52.136Z,33.80
2022-08-01T12:53:21.586Z,33.50
2022-08-01T12:55:59.533Z,33.20
2022-08-01T12:58:34.973Z,33.70
2022-08-01T13:01:09.012Z,33.40
2022-08-01T13:03:37.448Z,33.50
2022-08-01T13:06:15.695Z,33.30
2022-08-01T13:08:44.983Z,32.70
2022-08-01T13:11:16.483Z,32.90
2022-08-01T13:13:49.111Z,33.10
2022-08-01T13:16:34.244Z,33.30
2022-08-01T13:19:07.642Z,33.40
2022-08-01T13:21:53.554Z,33.10
2022-08-01T13:24:26.774Z,32.60
2022-08-01T13:26:59.874Z,32.10
2022-08-01T13:29:34.695Z,32.80
2022-08-01T13:32:27.659Z,33.10
2022-08-01T13:35:04.097Z,33.50
2022-08-01T13:37:32.519Z,33.70
2022-08-01T13:40:00.870Z,33.90
2022-08-01T13:42:30.312Z,33.90
2022-08-01T13:44:59.970Z,34.00
2022-08-01T13:47:31.979Z,34.00
2022-08-01T13:50:03.973Z,33.70
2022-08-01T13:52:32.748Z,33.60
2022-08-01T13:55:02.145Z,33.30
2022-08-01T13:57:36.321Z,33.20
2022-08-01T14:00:10.325Z,32.90
2022-08-01T14:02:38.729Z,33.10
2022-08-01T14:05:07.924Z,33.30
2022-08-01T14:07:36.207Z,33.30
2022-08-01T14:10:18.794Z,33.60
2022-08-01T14:12:48.680Z,33.70
2022-08-01T14:15:38.094Z,34.20
2022-08-01T14:18:17.370Z,33.80
2022-08-01T14:20:47.941Z,33.80
2022-08-01T14:23:19.744Z,33.90
2022-08-01T14:26:09.838Z,33.90
2022-08-01T14:28:45.483Z,33.90
2022-08-01T14:31:19.676Z,34.20
2022-08-01T14:33:47.873Z,34.20
2022-08-01T14:36:29.955Z,34.30
2022-08-01T14:39:01.132Z,34.30
2022-08-01T14:41:35.213Z,34.50
2022-08-01T14:44:07.417Z,34.70
2022-08-01T14:46:37.105Z,34.70
2022-08-01T14:49:25.391Z,35.00
2022-08-01T14:51:53.688Z,35.10
2022-08-01T14:54:29.171Z,35.20
2022-08-01T14:56:57.748Z,35.60
2022-08-01T14:59:26.009Z,36.00
2022-08-01T15:01:55.576Z,36.30
2022-08-01T15:04:23.739Z,36.20
2022-08-01T15:06:51.928Z,36.30
2022-08-01T15:09:20.125Z,36.00
2022-08-01T15:11:48.751Z,36.10
2022-08-01T15:14:34.431Z,35.50
2022-08-01T15:17:04.042Z,35.10
2022-08-01T15:19:32.291Z,34.80
2022-08-01T15:22:01.550Z,35.00
2022-08-01T15:24:30.034Z,34.60
2022-08-01T15:26:58.252Z,34.70
2022-08-01T15:29:26.508Z,34.70
2022-08-01T15:31:54.719Z,34.70
2022-08-01T15:34:24.806Z,34.60
2022-08-01T15:36:53.055Z,34.90
2022-08-01T15:39:21.247Z,34.70
2022-08-01T15:41:49.829Z,35.10
2022-08-01T15:44:21.059Z,34.20
2022-08-01T15:46:49.639Z,33.80
2022-08-01T15:49:18.092Z,32.50
2022-08-01T15:51:47.735Z,32.60
2022-08-01T15:54:16.007Z,31.70
2022-08-01T15:56:44.211Z,30.90
2022-08-01T15:59:12.801Z,30.20
2022-08-01T16:01:41.578Z,31.00
2022-08-01T16:04:12.691Z,30.90
2022-08-01T16:06:42.117Z,30.50
2022-08-01T16:09:18.568Z,30.50
2022-08-01T16:11:50.568Z,30.70
2022-08-01T16:14:28.559Z,30.60
2022-08-01T16:17:00.039Z,29.30
2022-08-01T16:19:28.286Z,28.90
2022-08-01T16:21:56.537Z,29.90
2022-08-01T16:24:29.135Z,30.80
2022-08-01T16:26:57.496Z,31.40
2022-08-01T16:29:30.849Z,31.70
2022-08-01T16:32:28.753Z,31.80
2022-08-01T16:34:47.775Z,31.20
2022-08-01T16:37:16.154Z,31.30
2022-08-01T16:39:45.941Z,31.90
2022-08-01T16:42:15.876Z,32.80
2022-08-01T16:44:50.026Z,33.70
2022-08-01T16:47:18.839Z,34.30
2022-08-01T16:49:47.092Z,35.20
2022-08-01T16:52:16.346Z,35.50
2022-08-01T16:54:50.625Z,35.90
2022-08-01T16:57:21.903Z,36.30
2022-08-01T16:59:50.099Z,36.60
2022-08-01T17:02:18.871Z,36.80
2022-08-01T17:04:47.157Z,37.00
2022-08-01T17:07:15.457Z,37.30
2022-08-01T17:09:43.797Z,37.50
2022-08-01T17:12:14.690Z,37.70
2022-08-01T17:14:50.500Z,38.10
2022-08-01T17:17:18.734Z,38.30
2022-08-01T17:19:47.486Z,38.60
2022-08-01T17:22:15.892Z,39.20
2022-08-01T17:24:44.332Z,39.80
2022-08-01T17:27:14.302Z,40.20
2022-08-01T17:29:44.167Z,40.60
2022-08-01T17:32:14.152Z,40.70
2022-08-01T17:34:43.117Z,41.00
2022-08-01T17:37:11.783Z,41.30
2022-08-01T17:39:40.412Z,41.90
2022-08-01T17:42:10.854Z,42.60
2022-08-01T17:44:41.708Z,42.80
2022-08-01T17:47:34.442Z,43.00
2022-08-01T17:50:07.356Z,43.20
2022-08-01T17:52:36.362Z,43.40
2022-08-01T17:55:05.652Z,43.70
2022-08-01T17:57:53.834Z,44.40
2022-08-01T18:00:23.438Z,45.40
2022-08-01T18:02:51.740Z,46.40
2022-08-01T18:05:20.043Z,47.00
2022-08-01T18:08:01.614Z,47.80
2022-08-01T18:10:30.643Z,48.60
2022-08-01T18:12:58.826Z,49.20
2022-08-01T18:15:29.104Z,50.40
2022-08-01T18:18:01.702Z,52.90
2022-08-01T18:20:30.524Z,55.20
2022-08-01T18:22:58.755Z,57.20
2022-08-01T18:25:29.322Z,58.40
2022-08-01T18:28:22.373Z,59.80
2022-08-01T18:30:47.163Z,60.20
2022-08-01T18:33:15.348Z,61.30
2022-08-01T18:35:52.190Z,61.80
2022-08-01T18:38:24.090Z,62.20
2022-08-01T18:40:52.875Z,63.10
2022-08-01T18:43:21.044Z,64.00
2022-08-01T18:45:50.802Z,64.90
2022-08-01T18:48:19.018Z,65.50
2022-08-01T18:50:47.273Z,65.60
2022-08-01T18:53:15.529Z,65.70
2022-08-01T18:55:43.752Z,66.00
2022-08-01T18:58:12.009Z,66.60
2022-08-01T19:00:40.560Z,67.00
2022-08-01T19:03:10.232Z,67.30
2022-08-01T19:05:38.621Z,67.90
2022-08-01T19:08:08.166Z,68.40
2022-08-01T19:10:37.026Z,68.70
2022-08-01T19:13:05.374Z,68.70
2022-08-01T19:15:33.667Z,69.30
2022-08-01T19:18:02.328Z,69.70
2022-08-01T19:20:31.986Z,69.90
2022-08-01T19:23:20.285Z,70.10
2022-08-01T19:25:55.240Z,70.50
2022-08-01T19:28:25.874Z,70.70
2022-08-01T19:30:55.375Z,70.90
2022-08-01T19:33:23.745Z,71.30
2022-08-01T19:35:54.434Z,71.40
2022-08-01T19:38:23.067Z,71.60
2022-08-01T19:40:51.520Z,71.70
2022-08-01T19:43:22.245Z,71.60
2022-08-01T19:45:51.383Z,71.50
2022-08-01T19:48:20.730Z,71.60
2022-08-01T19:50:50.763Z,71.90
2022-08-01T19:53:25.153Z,72.10
2022-08-01T19:55:54.215Z,72.20
2022-08-01T19:58:28.014Z,72.30
2022-08-01T20:00:57.048Z,72.60
2022-08-01T20:03:28.303Z,72.70
2022-08-01T20:05:57.202Z,72.70
2022-08-01T20:08:28.386Z,72.80
2022-08-01T20:11:00.054Z,72.90
2022-08-01T20:13:36.795Z,73.20
2022-08-01T20:16:08.992Z,73.20
2022-08-01T20:18:37.320Z,73.20
2022-08-01T20:21:06.853Z,73.30
2022-08-01T20:23:39.932Z,73.60
2022-08-01T20:26:09.590Z,73.80
2022-08-01T20:28:41.885Z,74.00
2022-08-01T20:31:11.507Z,74.00
2022-08-01T20:33:42.506Z,74.30
2022-08-01T20:36:25.948Z,74.50
2022-08-01T20:38:57.516Z,74.60
2022-08-01T20:41:26.791Z,74.40
2022-08-01T20:43:56.600Z,74.60
2022-08-01T20:46:26.238Z,74.50
2022-08-01T20:48:55.699Z,74.70
2022-08-01T20:51:25.573Z,74.90
2022-08-01T20:53:57.100Z,75.00
2022-08-01T20:56:35.351Z,75.20
2022-08-01T20:59:10.487Z,75.50
2022-08-01T21:02:01.455Z,75.50
2022-08-01T21:04:49.200Z,75.60
2022-08-01T21:07:26.879Z,75.80
2022-08-01T21:10:04.853Z,75.90
2022-08-01T21:12:43.688Z,75.70
2022-08-01T21:15:16.784Z,75.80
2022-08-01T21:17:50.281Z,75.90
2022-08-01T21:20:21.242Z,76.00
2022-08-01T21:23:00.857Z,76.10
2022-08-01T21:25:35.349Z,76.10
2022-08-01T21:28:04.734Z,76.10
2022-08-01T21:30:34.487Z,76.10
2022-08-01T21:33:06.179Z,76.30
2022-08-01T21:35:35.983Z,76.30
2022-08-01T21:38:05.559Z,76.30
2022-08-01T21:40:36.073Z,76.10
2022-08-01T21:43:04.977Z,76.10
2022-08-01T21:45:33.310Z,76.10
2022-08-01T21:48:02.339Z,76.20
2022-08-01T21:50:40.282Z,76.20
2022-08-01T21:53:17.163Z,76.40
2022-08-01T21:56:14.857Z,76.30
2022-08-01T21:58:51.417Z,76.30
2022-08-01T22:01:25.421Z,76.20
2022-08-01T22:03:56.087Z,76.30
2022-08-01T22:06:25.818Z,76.40
2022-08-01T22:08:55.612Z,76.40
2022-08-01T22:11:29.017Z,76.50
2022-08-01T22:14:01.179Z,76.60
2022-08-01T22:16:32.251Z,76.50
2022-08-01T22:19:03.255Z,76.70
2022-08-01T22:21:31.677Z,76.70
2022-08-01T22:24:00.954Z,76.80
2022-08-01T22:26:32.892Z,77.10
2022-08-01T22:29:02.050Z,77.10
2022-08-01T22:31:33.920Z,77.20
2022-08-01T22:34:05.886Z,77.10
2022-08-01T22:36:34.078Z,77.00
2022-08-01T22:39:02.321Z,77.10
2022-08-01T22:42:01.779Z,77.20
2022-08-01T22:44:30.480Z,77.10
2022-08-01T22:47:05.288Z,77.20
2022-08-01T22:49:37.661Z,77.10
2022-08-01T22:52:09.384Z,76.90
2022-08-01T22:54:39.973Z,76.90
2022-08-01T22:57:13.381Z,77.00
2022-08-01T22:59:50.307Z,77.10
2022-08-01T23:02:19.929Z,77.20
2022-08-01T23:04:49.948Z,77.10
2022-08-01T23:07:24.048Z,77.10
2022-08-01T23:09:55.099Z,77.10
2022-08-01T23:12:28.558Z,77.20
2022-08-01T23:14:58.976Z,77.20
2022-08-01T23:17:29.685Z,77.20
2022-08-01T23:20:02.368Z,77.30
2022-08-01T23:22:48.523Z,77.40
2022-08-01T23:25:18.006Z,77.50
2022-08-01T23:28:07.610Z,77.60
2022-08-01T23:30:39.250Z,77.70
2022-08-01T23:33:08.272Z,77.70
2022-08-01T23:35:39.214Z,77.60
2022-08-01T23:38:13.508Z,77.60
2022-08-01T23:43:30.277Z,77.60
2022-08-01T23:46:04.671Z,77.60
2022-08-01T23:48:36.815Z,77.60
2022-08-01T23:51:23.942Z,77.80
2022-08-01T23:53:54.532Z,77.90
2022-08-01T23:56:26.971Z,78.00
2022-08-01T23:59:01.725Z,78.10
